sensor_id;sensor_type;location;lat;lon;timestamp;P1;durP1;ratioP1;P2;durP2;ratioP2
51286;SDS011;37364;46.974;18.916;2023-08-07T00:01:27;8.02;;;1.08;;
51286;SDS011;37364;46.974;18.916;2023-08-07T00:03:57;2.97;;;1.30;;
51286;SDS011;37364;46.974;18.916;2023-08-07T00:06:30;5.90;;;0.98;;
51286;SDS011;37364;46.974;18.916;2023-08-07T00:09:01;2.25;;;1.25;;
51286;SDS011;37364;46.974;18.916;2023-08-07T00:11:32;1.10;;;1.00;;
51286;SDS011;37364;46.974;18.916;2023-08-07T00:14:02;2.10;;;1.00;;
51286;SDS011;37364;46.974;18.916;2023-08-07T00:16:33;1.25;;;0.90;;
51286;SDS011;37364;46.974;18.916;2023-08-07T00:19:03;2.38;;;1.20;;
51286;SDS011;37364;46.974;18.916;2023-08-07T00:21:36;1.42;;;0.90;;
51286;SDS011;37364;46.974;18.916;2023-08-07T00:24:06;3.50;;;0.90;;
51286;SDS011;37364;46.974;18.916;2023-08-07T00:26:36;1.30;;;0.82;;
51286;SDS011;37364;46.974;18.916;2023-08-07T00:29:06;2.83;;;0.60;;
51286;SDS011;37364;46.974;18.916;2023-08-07T00:31:37;3.50;;;0.70;;
51286;SDS011;37364;46.974;18.916;2023-08-07T00:34:07;7.45;;;1.13;;
51286;SDS011;37364;46.974;18.916;2023-08-07T00:36:40;2.00;;;1.20;;
51286;SDS011;37364;46.974;18.916;2023-08-07T00:39:10;1.10;;;0.87;;
51286;SDS011;37364;46.974;18.916;2023-08-07T00:41:40;1.17;;;0.88;;
51286;SDS011;37364;46.974;18.916;2023-08-07T00:44:10;0.98;;;0.98;;
51286;SDS011;37364;46.974;18.916;2023-08-07T00:46:40;4.72;;;2.08;;
51286;SDS011;37364;46.974;18.916;2023-08-07T00:49:12;3.92;;;1.38;;
51286;SDS011;37364;46.974;18.916;2023-08-07T00:51:46;1.25;;;0.90;;
51286;SDS011;37364;46.974;18.916;2023-08-07T00:54:18;0.73;;;0.52;;
51286;SDS011;37364;46.974;18.916;2023-08-07T00:56:49;1.83;;;0.70;;
51286;SDS011;37364;46.974;18.916;2023-08-07T00:59:20;5.00;;;0.80;;
51286;SDS011;37364;46.974;18.916;2023-08-07T01:01:51;4.68;;;0.57;;
51286;SDS011;37364;46.974;18.916;2023-08-07T01:04:22;13.88;;;1.25;;
51286;SDS011;37364;46.974;18.916;2023-08-07T01:06:55;5.88;;;0.80;;
51286;SDS011;37364;46.974;18.916;2023-08-07T01:09:25;1.97;;;0.70;;
51286;SDS011;37364;46.974;18.916;2023-08-07T01:11:57;0.68;;;0.63;;
51286;SDS011;37364;46.974;18.916;2023-08-07T01:14:36;0.82;;;0.82;;
51286;SDS011;37364;46.974;18.916;2023-08-07T01:17:14;7.88;;;1.00;;
51286;SDS011;37364;46.974;18.916;2023-08-07T01:19:47;3.50;;;0.82;;
51286;SDS011;37364;46.974;18.916;2023-08-07T01:22:21;3.85;;;0.60;;
51286;SDS011;37364;46.974;18.916;2023-08-07T01:24:52;3.42;;;0.70;;
51286;SDS011;37364;46.974;18.916;2023-08-07T01:27:24;2.03;;;0.90;;
51286;SDS011;37364;46.974;18.916;2023-08-07T01:30:14;0.70;;;0.65;;
51286;SDS011;37364;46.974;18.916;2023-08-07T01:32:54;0.90;;;0.82;;
51286;SDS011;37364;46.974;18.916;2023-08-07T01:35:30;2.95;;;0.63;;
51286;SDS011;37364;46.974;18.916;2023-08-07T01:38:07;0.75;;;0.60;;
51286;SDS011;37364;46.974;18.916;2023-08-07T01:40:39;5.72;;;0.68;;
51286;SDS011;37364;46.974;18.916;2023-08-07T01:43:11;3.13;;;0.60;;
51286;SDS011;37364;46.974;18.916;2023-08-07T01:45:41;4.28;;;0.63;;
51286;SDS011;37364;46.974;18.916;2023-08-07T01:48:11;1.20;;;0.70;;
51286;SDS011;37364;46.974;18.916;2023-08-07T01:50:41;0.80;;;0.45;;
51286;SDS011;37364;46.974;18.916;2023-08-07T01:53:14;2.28;;;0.47;;
51286;SDS011;37364;46.974;18.916;2023-08-07T01:55:44;6.63;;;0.50;;
51286;SDS011;37364;46.974;18.916;2023-08-07T01:58:14;1.38;;;0.95;;
51286;SDS011;37364;46.974;18.916;2023-08-07T02:00:45;0.80;;;0.80;;
51286;SDS011;37364;46.974;18.916;2023-08-07T02:03:18;3.15;;;0.65;;
51286;SDS011;37364;46.974;18.916;2023-08-07T02:05:48;0.98;;;0.43;;
51286;SDS011;37364;46.974;18.916;2023-08-07T02:08:21;3.88;;;0.40;;
51286;SDS011;37364;46.974;18.916;2023-08-07T02:10:52;3.13;;;0.30;;
51286;SDS011;37364;46.974;18.916;2023-08-07T02:13:22;3.08;;;0.50;;
51286;SDS011;37364;46.974;18.916;2023-08-07T02:15:52;7.38;;;0.70;;
51286;SDS011;37364;46.974;18.916;2023-08-07T02:18:22;2.38;;;0.60;;
51286;SDS011;37364;46.974;18.916;2023-08-07T02:20:52;1.50;;;0.60;;
51286;SDS011;37364;46.974;18.916;2023-08-07T02:23:27;0.82;;;0.30;;
51286;SDS011;37364;46.974;18.916;2023-08-07T02:25:59;1.38;;;0.40;;
51286;SDS011;37364;46.974;18.916;2023-08-07T02:28:30;2.92;;;0.38;;
51286;SDS011;37364;46.974;18.916;2023-08-07T02:31:01;1.65;;;0.50;;
51286;SDS011;37364;46.974;18.916;2023-08-07T02:33:31;0.65;;;0.32;;
51286;SDS011;37364;46.974;18.916;2023-08-07T02:36:01;1.15;;;0.60;;
51286;SDS011;37364;46.974;18.916;2023-08-07T02:38:34;0.98;;;0.50;;
51286;SDS011;37364;46.974;18.916;2023-08-07T02:41:04;4.63;;;0.70;;
51286;SDS011;37364;46.974;18.916;2023-08-07T02:43:35;2.25;;;0.40;;
51286;SDS011;37364;46.974;18.916;2023-08-07T02:46:05;0.40;;;0.40;;
51286;SDS011;37364;46.974;18.916;2023-08-07T02:48:35;4.40;;;0.40;;
51286;SDS011;37364;46.974;18.916;2023-08-07T02:51:07;5.28;;;0.32;;
51286;SDS011;37364;46.974;18.916;2023-08-07T02:53:40;3.95;;;0.55;;
51286;SDS011;37364;46.974;18.916;2023-08-07T02:56:10;4.47;;;0.88;;
51286;SDS011;37364;46.974;18.916;2023-08-07T02:58:41;3.40;;;0.55;;
51286;SDS011;37364;46.974;18.916;2023-08-07T03:01:11;4.78;;;0.47;;
51286;SDS011;37364;46.974;18.916;2023-08-07T03:03:41;1.45;;;0.60;;
51286;SDS011;37364;46.974;18.916;2023-08-07T03:06:11;2.17;;;0.45;;
51286;SDS011;37364;46.974;18.916;2023-08-07T03:08:45;1.55;;;1.00;;
51286;SDS011;37364;46.974;18.916;2023-08-07T03:11:15;4.07;;;0.80;;
51286;SDS011;37364;46.974;18.916;2023-08-07T03:13:46;5.95;;;0.47;;
51286;SDS011;37364;46.974;18.916;2023-08-07T03:16:16;1.10;;;0.50;;
51286;SDS011;37364;46.974;18.916;2023-08-07T03:18:47;5.45;;;0.68;;
51286;SDS011;37364;46.974;18.916;2023-08-07T03:21:18;0.47;;;0.47;;
51286;SDS011;37364;46.974;18.916;2023-08-07T03:23:51;3.65;;;0.70;;
51286;SDS011;37364;46.974;18.916;2023-08-07T03:26:21;1.80;;;0.50;;
51286;SDS011;37364;46.974;18.916;2023-08-07T03:28:51;1.85;;;1.05;;
51286;SDS011;37364;46.974;18.916;2023-08-07T03:31:21;1.38;;;0.50;;
51286;SDS011;37364;46.974;18.916;2023-08-07T03:33:52;1.23;;;0.43;;
51286;SDS011;37364;46.974;18.916;2023-08-07T03:36:23;3.38;;;0.60;;
51286;SDS011;37364;46.974;18.916;2023-08-07T03:38:55;3.42;;;0.73;;
51286;SDS011;37364;46.974;18.916;2023-08-07T03:43:57;1.00;;;0.52;;
51286;SDS011;37364;46.974;18.916;2023-08-07T03:46:27;0.68;;;0.47;;
51286;SDS011;37364;46.974;18.916;2023-08-07T03:48:58;2.38;;;0.55;;
51286;SDS011;37364;46.974;18.916;2023-08-07T03:51:29;5.03;;;0.57;;
51286;SDS011;37364;46.974;18.916;2023-08-07T03:54:02;1.98;;;0.40;;
51286;SDS011;37364;46.974;18.916;2023-08-07T03:56:32;3.53;;;0.40;;
51286;SDS011;37364;46.974;18.916;2023-08-07T03:59:04;3.40;;;0.50;;
51286;SDS011;37364;46.974;18.916;2023-08-07T04:01:34;1.42;;;0.50;;
51286;SDS011;37364;46.974;18.916;2023-08-07T04:04:04;1.90;;;0.45;;
51286;SDS011;37364;46.974;18.916;2023-08-07T04:06:35;5.20;;;0.50;;
51286;SDS011;37364;46.974;18.916;2023-08-07T04:09:08;0.60;;;0.47;;
51286;SDS011;37364;46.974;18.916;2023-08-07T04:11:38;0.57;;;0.57;;
51286;SDS011;37364;46.974;18.916;2023-08-07T04:14:10;0.60;;;0.52;;
51286;SDS011;37364;46.974;18.916;2023-08-07T04:16:40;7.80;;;0.63;;
51286;SDS011;37364;46.974;18.916;2023-08-07T04:19:10;0.73;;;0.47;;
51286;SDS011;37364;46.974;18.916;2023-08-07T04:21:41;0.70;;;0.70;;
51286;SDS011;37364;46.974;18.916;2023-08-07T04:24:14;1.75;;;0.45;;
51286;SDS011;37364;46.974;18.916;2023-08-07T04:26:44;4.68;;;0.50;;
51286;SDS011;37364;46.974;18.916;2023-08-07T04:29:14;4.10;;;0.70;;
51286;SDS011;37364;46.974;18.916;2023-08-07T04:31:44;2.67;;;0.70;;
51286;SDS011;37364;46.974;18.916;2023-08-07T04:34:14;1.65;;;0.68;;
51286;SDS011;37364;46.974;18.916;2023-08-07T04:36:45;0.68;;;0.43;;
51286;SDS011;37364;46.974;18.916;2023-08-07T04:39:20;1.58;;;0.50;;
51286;SDS011;37364;46.974;18.916;2023-08-07T04:41:50;0.43;;;0.43;;
51286;SDS011;37364;46.974;18.916;2023-08-07T04:44:20;0.75;;;0.70;;
51286;SDS011;37364;46.974;18.916;2023-08-07T04:46:50;1.50;;;0.50;;
51286;SDS011;37364;46.974;18.916;2023-08-07T04:49:22;8.68;;;0.95;;
51286;SDS011;37364;46.974;18.916;2023-08-07T04:51:52;6.47;;;0.60;;
51286;SDS011;37364;46.974;18.916;2023-08-07T04:54:25;3.47;;;1.02;;
51286;SDS011;37364;46.974;18.916;2023-08-07T04:56:55;3.43;;;2.03;;
51286;SDS011;37364;46.974;18.916;2023-08-07T04:59:25;5.20;;;4.80;;
51286;SDS011;37364;46.974;18.916;2023-08-07T05:01:56;6.60;;;5.20;;
51286;SDS011;37364;46.974;18.916;2023-08-07T05:04:27;6.20;;;3.78;;
51286;SDS011;37364;46.974;18.916;2023-08-07T05:06:57;1.38;;;1.23;;
51286;SDS011;37364;46.974;18.916;2023-08-07T05:09:30;2.42;;;0.60;;
51286;SDS011;37364;46.974;18.916;2023-08-07T05:12:00;1.00;;;0.40;;
51286;SDS011;37364;46.974;18.916;2023-08-07T05:14:30;0.57;;;0.57;;
51286;SDS011;37364;46.974;18.916;2023-08-07T05:17:00;0.75;;;0.47;;
51286;SDS011;37364;46.974;18.916;2023-08-07T05:19:31;0.63;;;0.50;;
51286;SDS011;37364;46.974;18.916;2023-08-07T05:22:01;3.47;;;0.60;;
51286;SDS011;37364;46.974;18.916;2023-08-07T05:24:34;1.52;;;0.52;;
51286;SDS011;37364;46.974;18.916;2023-08-07T05:27:06;2.58;;;0.70;;
51286;SDS011;37364;46.974;18.916;2023-08-07T05:29:37;3.85;;;0.60;;
51286;SDS011;37364;46.974;18.916;2023-08-07T05:32:13;0.45;;;0.35;;
51286;SDS011;37364;46.974;18.916;2023-08-07T05:34:44;0.70;;;0.70;;
51286;SDS011;37364;46.974;18.916;2023-08-07T05:37:14;0.40;;;0.40;;
51286;SDS011;37364;46.974;18.916;2023-08-07T05:39:47;9.73;;;0.40;;
51286;SDS011;37364;46.974;18.916;2023-08-07T05:42:17;1.63;;;0.77;;
51286;SDS011;37364;46.974;18.916;2023-08-07T05:44:47;1.20;;;0.73;;
51286;SDS011;37364;46.974;18.916;2023-08-07T05:47:17;4.93;;;2.00;;
51286;SDS011;37364;46.974;18.916;2023-08-07T05:49:47;1.17;;;1.13;;
51286;SDS011;37364;46.974;18.916;2023-08-07T05:52:18;0.60;;;0.45;;
51286;SDS011;37364;46.974;18.916;2023-08-07T05:54:51;2.95;;;0.73;;
51286;SDS011;37364;46.974;18.916;2023-08-07T05:57:21;2.40;;;0.90;;
51286;SDS011;37364;46.974;18.916;2023-08-07T05:59:51;3.42;;;0.82;;
51286;SDS011;37364;46.974;18.916;2023-08-07T06:02:21;1.85;;;0.90;;
51286;SDS011;37364;46.974;18.916;2023-08-07T06:04:51;3.33;;;0.63;;
51286;SDS011;37364;46.974;18.916;2023-08-07T06:07:21;4.03;;;1.00;;
51286;SDS011;37364;46.974;18.916;2023-08-07T06:09:55;0.82;;;0.55;;
51286;SDS011;37364;46.974;18.916;2023-08-07T06:12:25;2.20;;;0.75;;
51286;SDS011;37364;46.974;18.916;2023-08-07T06:14:55;2.45;;;0.73;;
51286;SDS011;37364;46.974;18.916;2023-08-07T06:17:25;1.63;;;0.43;;
51286;SDS011;37364;46.974;18.916;2023-08-07T06:19:56;1.33;;;0.82;;
51286;SDS011;37364;46.974;18.916;2023-08-07T06:22:26;1.20;;;1.10;;
51286;SDS011;37364;46.974;18.916;2023-08-07T06:24:59;1.10;;;0.75;;
51286;SDS011;37364;46.974;18.916;2023-08-07T06:27:29;1.60;;;0.40;;
51286;SDS011;37364;46.974;18.916;2023-08-07T06:30:00;1.55;;;0.68;;
51286;SDS011;37364;46.974;18.916;2023-08-07T06:32:31;6.00;;;0.80;;
51286;SDS011;37364;46.974;18.916;2023-08-07T06:37:34;3.67;;;0.60;;
51286;SDS011;37364;46.974;18.916;2023-08-07T06:40:07;2.90;;;0.65;;
51286;SDS011;37364;46.974;18.916;2023-08-07T06:42:40;4.03;;;0.93;;
51286;SDS011;37364;46.974;18.916;2023-08-07T06:45:11;4.60;;;1.00;;
51286;SDS011;37364;46.974;18.916;2023-08-07T06:47:41;4.25;;;0.57;;
51286;SDS011;37364;46.974;18.916;2023-08-07T06:50:11;1.15;;;0.55;;
51286;SDS011;37364;46.974;18.916;2023-08-07T06:52:43;6.40;;;0.70;;
51286;SDS011;37364;46.974;18.916;2023-08-07T06:55:15;1.33;;;0.60;;
51286;SDS011;37364;46.974;18.916;2023-08-07T06:57:46;3.15;;;0.73;;
51286;SDS011;37364;46.974;18.916;2023-08-07T07:00:17;3.92;;;0.60;;
51286;SDS011;37364;46.974;18.916;2023-08-07T07:02:48;8.88;;;0.57;;
51286;SDS011;37364;46.974;18.916;2023-08-07T07:05:18;2.05;;;0.50;;
51286;SDS011;37364;46.974;18.916;2023-08-07T07:07:48;1.58;;;0.60;;
51286;SDS011;37364;46.974;18.916;2023-08-07T07:10:21;2.20;;;0.60;;
51286;SDS011;37364;46.974;18.916;2023-08-07T07:12:56;3.22;;;0.90;;
51286;SDS011;37364;46.974;18.916;2023-08-07T07:15:30;7.03;;;1.35;;
51286;SDS011;37364;46.974;18.916;2023-08-07T07:18:12;12.95;;;0.93;;
51286;SDS011;37364;46.974;18.916;2023-08-07T07:20:55;0.50;;;0.50;;
51286;SDS011;37364;46.974;18.916;2023-08-07T07:23:28;1.55;;;0.50;;
51286;SDS011;37364;46.974;18.916;2023-08-07T07:26:02;7.72;;;0.80;;
51286;SDS011;37364;46.974;18.916;2023-08-07T07:28:34;7.05;;;0.80;;
51286;SDS011;37364;46.974;18.916;2023-08-07T07:31:07;4.00;;;0.50;;
51286;SDS011;37364;46.974;18.916;2023-08-07T07:33:38;1.90;;;0.47;;
51286;SDS011;37364;46.974;18.916;2023-08-07T07:36:15;1.05;;;0.82;;
51286;SDS011;37364;46.974;18.916;2023-08-07T07:38:49;0.73;;;0.50;;
51286;SDS011;37364;46.974;18.916;2023-08-07T07:41:25;10.82;;;0.90;;
51286;SDS011;37364;46.974;18.916;2023-08-07T07:44:01;6.78;;;0.70;;
51286;SDS011;37364;46.974;18.916;2023-08-07T07:46:34;1.88;;;0.82;;
51286;SDS011;37364;46.974;18.916;2023-08-07T07:49:04;0.75;;;0.75;;
51286;SDS011;37364;46.974;18.916;2023-08-07T07:51:36;4.63;;;0.65;;
51286;SDS011;37364;46.974;18.916;2023-08-07T07:54:09;0.73;;;0.65;;
51286;SDS011;37364;46.974;18.916;2023-08-07T07:56:44;8.85;;;1.10;;
51286;SDS011;37364;46.974;18.916;2023-08-07T07:59:17;5.15;;;1.00;;
51286;SDS011;37364;46.974;18.916;2023-08-07T08:01:54;9.57;;;1.05;;
51286;SDS011;37364;46.974;18.916;2023-08-07T08:04:31;2.17;;;0.70;;
51286;SDS011;37364;46.974;18.916;2023-08-07T08:07:03;1.03;;;0.60;;
51286;SDS011;37364;46.974;18.916;2023-08-07T08:09:35;1.40;;;0.50;;
51286;SDS011;37364;46.974;18.916;2023-08-07T08:12:08;1.17;;;0.63;;
51286;SDS011;37364;46.974;18.916;2023-08-07T08:14:39;1.65;;;0.70;;
51286;SDS011;37364;46.974;18.916;2023-08-07T08:17:22;19.73;;;0.93;;
51286;SDS011;37364;46.974;18.916;2023-08-07T08:19:55;2.05;;;0.65;;
51286;SDS011;37364;46.974;18.916;2023-08-07T08:22:25;4.30;;;0.75;;
51286;SDS011;37364;46.974;18.916;2023-08-07T08:24:57;2.30;;;0.70;;
51286;SDS011;37364;46.974;18.916;2023-08-07T08:27:35;6.45;;;1.60;;
51286;SDS011;37364;46.974;18.916;2023-08-07T08:30:12;1.48;;;0.68;;
51286;SDS011;37364;46.974;18.916;2023-08-07T08:32:42;3.00;;;0.70;;
51286;SDS011;37364;46.974;18.916;2023-08-07T08:35:13;0.70;;;0.40;;
51286;SDS011;37364;46.974;18.916;2023-08-07T08:37:45;1.42;;;0.80;;
51286;SDS011;37364;46.974;18.916;2023-08-07T08:40:21;0.82;;;0.50;;
51286;SDS011;37364;46.974;18.916;2023-08-07T08:43:02;1.65;;;0.65;;
51286;SDS011;37364;46.974;18.916;2023-08-07T08:45:36;1.60;;;0.57;;
51286;SDS011;37364;46.974;18.916;2023-08-07T08:48:08;0.40;;;0.40;;
51286;SDS011;37364;46.974;18.916;2023-08-07T08:50:46;0.90;;;0.60;;
51286;SDS011;37364;46.974;18.916;2023-08-07T08:53:18;1.40;;;0.65;;
51286;SDS011;37364;46.974;18.916;2023-08-07T08:55:54;3.60;;;0.88;;
51286;SDS011;37364;46.974;18.916;2023-08-07T08:58:30;2.08;;;0.63;;
51286;SDS011;37364;46.974;18.916;2023-08-07T09:01:01;3.03;;;0.82;;
51286;SDS011;37364;46.974;18.916;2023-08-07T09:03:38;4.35;;;0.73;;
51286;SDS011;37364;46.974;18.916;2023-08-07T09:06:20;2.33;;;0.70;;
51286;SDS011;37364;46.974;18.916;2023-08-07T09:08:51;1.45;;;0.73;;
51286;SDS011;37364;46.974;18.916;2023-08-07T09:11:25;2.10;;;0.55;;
51286;SDS011;37364;46.974;18.916;2023-08-07T09:13:58;0.43;;;0.43;;
51286;SDS011;37364;46.974;18.916;2023-08-07T09:16:41;2.05;;;0.57;;
51286;SDS011;37364;46.974;18.916;2023-08-07T09:19:15;0.50;;;0.50;;
51286;SDS011;37364;46.974;18.916;2023-08-07T09:21:54;0.85;;;0.43;;
51286;SDS011;37364;46.974;18.916;2023-08-07T09:24:35;1.10;;;0.65;;
51286;SDS011;37364;46.974;18.916;2023-08-07T09:27:08;0.55;;;0.50;;
51286;SDS011;37364;46.974;18.916;2023-08-07T09:32:15;0.50;;;0.45;;
51286;SDS011;37364;46.974;18.916;2023-08-07T09:37:19;2.20;;;0.52;;
51286;SDS011;37364;46.974;18.916;2023-08-07T09:39:54;3.65;;;0.77;;
51286;SDS011;37364;46.974;18.916;2023-08-07T09:42:28;4.30;;;1.00;;
51286;SDS011;37364;46.974;18.916;2023-08-07T09:45:05;0.93;;;0.40;;
51286;SDS011;37364;46.974;18.916;2023-08-07T09:47:59;3.63;;;0.47;;
51286;SDS011;37364;46.974;18.916;2023-08-07T09:50:33;0.35;;;0.35;;
51286;SDS011;37364;46.974;18.916;2023-08-07T09:53:11;1.00;;;0.50;;
51286;SDS011;37364;46.974;18.916;2023-08-07T09:55:43;5.45;;;0.70;;
51286;SDS011;37364;46.974;18.916;2023-08-07T09:58:14;0.50;;;0.50;;
51286;SDS011;37364;46.974;18.916;2023-08-07T10:00:53;1.05;;;0.55;;
51286;SDS011;37364;46.974;18.916;2023-08-07T10:03:26;7.68;;;0.50;;
51286;SDS011;37364;46.974;18.916;2023-08-07T10:05:57;2.28;;;0.45;;
51286;SDS011;37364;46.974;18.916;2023-08-07T10:08:29;0.47;;;0.40;;
51286;SDS011;37364;46.974;18.916;2023-08-07T10:11:09;1.83;;;0.80;;
51286;SDS011;37364;46.974;18.916;2023-08-07T10:13:46;0.98;;;0.40;;
51286;SDS011;37364;46.974;18.916;2023-08-07T10:16:23;2.38;;;0.68;;
51286;SDS011;37364;46.974;18.916;2023-08-07T10:18:58;2.10;;;0.60;;
51286;SDS011;37364;46.974;18.916;2023-08-07T10:21:31;1.33;;;0.63;;
51286;SDS011;37364;46.974;18.916;2023-08-07T10:24:04;2.65;;;0.40;;
51286;SDS011;37364;46.974;18.916;2023-08-07T10:26:35;0.95;;;0.50;;
51286;SDS011;37364;46.974;18.916;2023-08-07T10:29:13;3.13;;;0.50;;
51286;SDS011;37364;46.974;18.916;2023-08-07T10:31:50;1.60;;;0.70;;
51286;SDS011;37364;46.974;18.916;2023-08-07T10:34:22;0.63;;;0.40;;
51286;SDS011;37364;46.974;18.916;2023-08-07T10:36:52;1.83;;;0.50;;
51286;SDS011;37364;46.974;18.916;2023-08-07T10:39:23;4.55;;;0.80;;
51286;SDS011;37364;46.974;18.916;2023-08-07T10:41:53;5.10;;;0.80;;
51286;SDS011;37364;46.974;18.916;2023-08-07T10:44:29;2.63;;;0.30;;
51286;SDS011;37364;46.974;18.916;2023-08-07T10:47:03;2.40;;;0.70;;
51286;SDS011;37364;46.974;18.916;2023-08-07T10:49:37;1.00;;;0.60;;
51286;SDS011;37364;46.974;18.916;2023-08-07T10:52:11;1.50;;;0.43;;
51286;SDS011;37364;46.974;18.916;2023-08-07T10:54:47;1.55;;;0.50;;
51286;SDS011;37364;46.974;18.916;2023-08-07T10:57:19;4.65;;;0.60;;
51286;SDS011;37364;46.974;18.916;2023-08-07T11:00:01;0.85;;;0.30;;
51286;SDS011;37364;46.974;18.916;2023-08-07T11:02:41;1.77;;;0.60;;
51286;SDS011;37364;46.974;18.916;2023-08-07T11:05:17;3.80;;;0.60;;
51286;SDS011;37364;46.974;18.916;2023-08-07T11:07:51;0.30;;;0.30;;
51286;SDS011;37364;46.974;18.916;2023-08-07T11:10:24;1.65;;;0.45;;
51286;SDS011;37364;46.974;18.916;2023-08-07T11:13:01;3.78;;;0.57;;
51286;SDS011;37364;46.974;18.916;2023-08-07T11:15:38;0.52;;;0.22;;
51286;SDS011;37364;46.974;18.916;2023-08-07T11:18:11;0.77;;;0.32;;
51286;SDS011;37364;46.974;18.916;2023-08-07T11:20:48;1.65;;;0.38;;
51286;SDS011;37364;46.974;18.916;2023-08-07T11:23:22;6.45;;;0.50;;
51286;SDS011;37364;46.974;18.916;2023-08-07T11:26:01;0.88;;;0.47;;
51286;SDS011;37364;46.974;18.916;2023-08-07T11:28:37;1.25;;;0.30;;
51286;SDS011;37364;46.974;18.916;2023-08-07T11:31:08;4.43;;;0.10;;
51286;SDS011;37364;46.974;18.916;2023-08-07T11:33:42;3.92;;;0.40;;
51286;SDS011;37364;46.974;18.916;2023-08-07T11:36:14;0.20;;;0.20;;
51286;SDS011;37364;46.974;18.916;2023-08-07T11:38:45;2.83;;;0.93;;
51286;SDS011;37364;46.974;18.916;2023-08-07T11:41:23;0.15;;;0.15;;
51286;SDS011;37364;46.974;18.916;2023-08-07T11:43:56;6.30;;;0.28;;
51286;SDS011;37364;46.974;18.916;2023-08-07T11:46:26;1.02;;;0.38;;
51286;SDS011;37364;46.974;18.916;2023-08-07T11:49:02;0.55;;;0.30;;
51286;SDS011;37364;46.974;18.916;2023-08-07T11:51:33;0.10;;;0.10;;
51286;SDS011;37364;46.974;18.916;2023-08-07T11:54:04;1.23;;;0.20;;
51286;SDS011;37364;46.974;18.916;2023-08-07T11:56:36;6.13;;;0.30;;
51286;SDS011;37364;46.974;18.916;2023-08-07T11:59:11;3.25;;;0.10;;
51286;SDS011;37364;46.974;18.916;2023-08-07T12:01:47;2.55;;;0.30;;
51286;SDS011;37364;46.974;18.916;2023-08-07T12:04:21;0.85;;;0.30;;
51286;SDS011;37364;46.974;18.916;2023-08-07T12:06:52;1.10;;;0.17;;
51286;SDS011;37364;46.974;18.916;2023-08-07T12:09:25;2.43;;;0.20;;
51286;SDS011;37364;46.974;18.916;2023-08-07T12:11:56;0.32;;;0.22;;
51286;SDS011;37364;46.974;18.916;2023-08-07T12:14:29;0.15;;;0.15;;
51286;SDS011;37364;46.974;18.916;2023-08-07T12:17:01;7.60;;;0.28;;
51286;SDS011;37364;46.974;18.916;2023-08-07T12:19:41;4.47;;;0.28;;
51286;SDS011;37364;46.974;18.916;2023-08-07T12:22:13;4.15;;;0.57;;
51286;SDS011;37364;46.974;18.916;2023-08-07T12:24:43;0.65;;;0.65;;
51286;SDS011;37364;46.974;18.916;2023-08-07T12:27:15;1.40;;;0.28;;
51286;SDS011;37364;46.974;18.916;2023-08-07T12:29:47;0.20;;;0.20;;
51286;SDS011;37364;46.974;18.916;2023-08-07T12:32:17;0.10;;;0.10;;
51286;SDS011;37364;46.974;18.916;2023-08-07T12:34:50;0.38;;;0.10;;
51286;SDS011;37364;46.974;18.916;2023-08-07T12:37:23;1.13;;;0.57;;
51286;SDS011;37364;46.974;18.916;2023-08-07T12:39:53;3.97;;;0.40;;
51286;SDS011;37364;46.974;18.916;2023-08-07T12:42:44;1.27;;;0.43;;
51286;SDS011;37364;46.974;18.916;2023-08-07T12:45:15;4.57;;;0.40;;
51286;SDS011;37364;46.974;18.916;2023-08-07T12:48:06;2.22;;;0.22;;
51286;SDS011;37364;46.974;18.916;2023-08-07T12:50:39;8.00;;;0.40;;
51286;SDS011;37364;46.974;18.916;2023-08-07T12:53:09;2.40;;;0.30;;
51286;SDS011;37364;46.974;18.916;2023-08-07T12:55:39;1.52;;;0.28;;
51286;SDS011;37364;46.974;18.916;2023-08-07T12:58:10;4.40;;;0.20;;
51286;SDS011;37364;46.974;18.916;2023-08-07T13:00:40;2.78;;;0.30;;
51286;SDS011;37364;46.974;18.916;2023-08-07T13:03:11;0.20;;;0.20;;
51286;SDS011;37364;46.974;18.916;2023-08-07T13:05:43;0.45;;;0.20;;
51286;SDS011;37364;46.974;18.916;2023-08-07T13:08:14;1.65;;;0.30;;
51286;SDS011;37364;46.974;18.916;2023-08-07T13:10:45;0.57;;;0.20;;
51286;SDS011;37364;46.974;18.916;2023-08-07T13:13:16;0.20;;;0.20;;
51286;SDS011;37364;46.974;18.916;2023-08-07T13:15:46;5.68;;;0.20;;
51286;SDS011;37364;46.974;18.916;2023-08-07T13:18:22;5.20;;;0.40;;
51286;SDS011;37364;46.974;18.916;2023-08-07T13:20:56;1.00;;;0.40;;
51286;SDS011;37364;46.974;18.916;2023-08-07T13:23:26;2.22;;;0.20;;
51286;SDS011;37364;46.974;18.916;2023-08-07T13:25:57;1.77;;;0.30;;
51286;SDS011;37364;46.974;18.916;2023-08-07T13:28:27;0.40;;;0.20;;
51286;SDS011;37364;46.974;18.916;2023-08-07T13:30:57;7.32;;;0.28;;
51286;SDS011;37364;46.974;18.916;2023-08-07T13:33:28;5.75;;;0.50;;
51286;SDS011;37364;46.974;18.916;2023-08-07T13:36:02;7.57;;;0.25;;
51286;SDS011;37364;46.974;18.916;2023-08-07T13:38:34;0.17;;;0.17;;
51286;SDS011;37364;46.974;18.916;2023-08-07T13:41:04;1.45;;;0.10;;
51286;SDS011;37364;46.974;18.916;2023-08-07T13:43:34;5.05;;;0.28;;
51286;SDS011;37364;46.974;18.916;2023-08-07T13:46:04;5.82;;;0.20;;
51286;SDS011;37364;46.974;18.916;2023-08-07T13:48:34;0.13;;;0.13;;
51286;SDS011;37364;46.974;18.916;2023-08-07T13:51:07;3.03;;;0.30;;
51286;SDS011;37364;46.974;18.916;2023-08-07T13:53:37;0.43;;;0.25;;
51286;SDS011;37364;46.974;18.916;2023-08-07T13:56:07;0.32;;;0.32;;
51286;SDS011;37364;46.974;18.916;2023-08-07T13:58:39;2.53;;;0.10;;
51286;SDS011;37364;46.974;18.916;2023-08-07T14:01:09;3.10;;;0.50;;
51286;SDS011;37364;46.974;18.916;2023-08-07T14:03:39;4.20;;;0.30;;
51286;SDS011;37364;46.974;18.916;2023-08-07T14:06:12;2.17;;;0.30;;
51286;SDS011;37364;46.974;18.916;2023-08-07T14:08:47;5.53;;;0.45;;
51286;SDS011;37364;46.974;18.916;2023-08-07T14:11:18;1.65;;;0.20;;
51286;SDS011;37364;46.974;18.916;2023-08-07T14:13:51;0.30;;;0.20;;
51286;SDS011;37364;46.974;18.916;2023-08-07T14:16:21;1.55;;;0.35;;
51286;SDS011;37364;46.974;18.916;2023-08-07T14:18:51;1.00;;;0.30;;
51286;SDS011;37364;46.974;18.916;2023-08-07T14:21:24;1.15;;;0.43;;
51286;SDS011;37364;46.974;18.916;2023-08-07T14:23:55;3.40;;;0.50;;
51286;SDS011;37364;46.974;18.916;2023-08-07T14:26:25;1.08;;;0.30;;
51286;SDS011;37364;46.974;18.916;2023-08-07T14:28:55;0.30;;;0.30;;
51286;SDS011;37364;46.974;18.916;2023-08-07T14:31:25;5.57;;;0.25;;
51286;SDS011;37364;46.974;18.916;2023-08-07T14:33:56;0.00;;;0.00;;
51286;SDS011;37364;46.974;18.916;2023-08-07T14:36:28;0.30;;;0.20;;
51286;SDS011;37364;46.974;18.916;2023-08-07T14:38:59;1.48;;;0.20;;
51286;SDS011;37364;46.974;18.916;2023-08-07T14:41:29;0.98;;;0.20;;
51286;SDS011;37364;46.974;18.916;2023-08-07T14:43:59;1.35;;;0.20;;
51286;SDS011;37364;46.974;18.916;2023-08-07T14:46:29;0.65;;;0.30;;
51286;SDS011;37364;46.974;18.916;2023-08-07T14:49:00;0.40;;;0.30;;
51286;SDS011;37364;46.974;18.916;2023-08-07T14:51:32;6.75;;;0.45;;
51286;SDS011;37364;46.974;18.916;2023-08-07T14:54:02;15.33;;;0.40;;
51286;SDS011;37364;46.974;18.916;2023-08-07T14:56:33;0.40;;;0.30;;
51286;SDS011;37364;46.974;18.916;2023-08-07T14:59:03;0.20;;;0.20;;
51286;SDS011;37364;46.974;18.916;2023-08-07T15:01:33;2.28;;;0.30;;
51286;SDS011;37364;46.974;18.916;2023-08-07T15:04:03;0.20;;;0.20;;
51286;SDS011;37364;46.974;18.916;2023-08-07T15:06:37;0.63;;;0.45;;
51286;SDS011;37364;46.974;18.916;2023-08-07T15:09:09;0.22;;;0.22;;
51286;SDS011;37364;46.974;18.916;2023-08-07T15:11:39;6.22;;;0.20;;
51286;SDS011;37364;46.974;18.916;2023-08-07T15:14:09;0.65;;;0.28;;